5PS2 weather

Paoli Memorial Hospital Heliport
Paoli, Pennsylvania, United States

Public forecast

Using degrees Fahrenheit for public forecast. Weather courtesy of forecast.io.

METAR (pilot weather report)

Closest report is Brandywine Airport, 5.0 nm (9.2 km) SW. Retrieved 2019/07/21 22:35 UTC (0 seconds ago):

KOQN 212235Z AUTO 23003KT 10SM CLR 33/24 A2984 RMK AO2

TAF (pilot weather forecast)

Closest forecast is Philadelphia International Airport, 15.8 nm (29.2 km) SE. Retrieved 2019/07/21 18:27 UTC (4 hours ago):

TAF KPHL 211720Z 2118/2224 27009KT P6SM SCT150 FM212200 27009KT P6SM VCTS SCT050CB TEMPO 2123/2202 3SM -TSRA BKN050CB FM220300 VRB04KT P6SM BKN200 FM222000 24010KT 4SM +SHRA VCTS OVC070CB